sensor_id;sensor_type;location;lat;lon;timestamp;temperature;humidity
1361;DHT22;674;45.552;-122.600;2022-08-25T00:00:20;31.30;1.00
1361;DHT22;674;45.552;-122.600;2022-08-25T00:02:50;31.30;1.00
1361;DHT22;674;45.552;-122.600;2022-08-25T00:05:27;31.40;1.00
1361;DHT22;674;45.552;-122.600;2022-08-25T00:07:59;31.40;1.00
1361;DHT22;674;45.552;-122.600;2022-08-25T00:10:28;31.40;1.00
1361;DHT22;674;45.552;-122.600;2022-08-25T00:12:57;31.50;1.00
1361;DHT22;674;45.552;-122.600;2022-08-25T00:15:27;31.60;1.00
1361;DHT22;674;45.552;-122.600;2022-08-25T00:17:56;31.60;1.00
1361;DHT22;674;45.552;-122.600;2022-08-25T00:20:26;31.50;1.00
1361;DHT22;674;45.552;-122.600;2022-08-25T00:22:55;31.50;1.00
1361;DHT22;674;45.552;-122.600;2022-08-25T00:25:23;31.60;1.00
1361;DHT22;674;45.552;-122.600;2022-08-25T00:27:52;31.60;1.00
1361;DHT22;674;45.552;-122.600;2022-08-25T00:30:21;31.60;1.00
1361;DHT22;674;45.552;-122.600;2022-08-25T00:32:50;31.60;1.00
1361;DHT22;674;45.552;-122.600;2022-08-25T00:35:23;31.60;1.00
1361;DHT22;674;45.552;-122.600;2022-08-25T00:37:52;31.80;1.00
1361;DHT22;674;45.552;-122.600;2022-08-25T00:40:23;31.60;1.00
1361;DHT22;674;45.552;-122.600;2022-08-25T00:42:51;31.60;1.00
1361;DHT22;674;45.552;-122.600;2022-08-25T00:45:23;31.60;1.00
1361;DHT22;674;45.552;-122.600;2022-08-25T00:47:52;31.60;1.00
1361;DHT22;674;45.552;-122.600;2022-08-25T00:50:22;31.60;1.00
1361;DHT22;674;45.552;-122.600;2022-08-25T00:52:55;31.40;1.00
1361;DHT22;674;45.552;-122.600;2022-08-25T00:55:36;31.30;1.00
1361;DHT22;674;45.552;-122.600;2022-08-25T00:58:14;31.30;1.00
1361;DHT22;674;45.552;-122.600;2022-08-25T01:00:48;31.30;1.00
1361;DHT22;674;45.552;-122.600;2022-08-25T01:03:19;31.40;1.00
1361;DHT22;674;45.552;-122.600;2022-08-25T01:05:52;31.30;1.00
1361;DHT22;674;45.552;-122.600;2022-08-25T01:08:24;31.30;1.00
1361;DHT22;674;45.552;-122.600;2022-08-25T01:10:58;31.40;1.00
1361;DHT22;674;45.552;-122.600;2022-08-25T01:13:54;31.30;1.00
1361;DHT22;674;45.552;-122.600;2022-08-25T01:16:23;31.40;1.00
1361;DHT22;674;45.552;-122.600;2022-08-25T01:18:55;31.30;1.00
1361;DHT22;674;45.552;-122.600;2022-08-25T01:21:25;31.30;1.00
1361;DHT22;674;45.552;-122.600;2022-08-25T01:23:55;31.20;1.00
1361;DHT22;674;45.552;-122.600;2022-08-25T01:26:28;31.20;1.00
1361;DHT22;674;45.552;-122.600;2022-08-25T01:29:02;31.20;1.00
1361;DHT22;674;45.552;-122.600;2022-08-25T01:31:50;31.20;1.00
1361;DHT22;674;45.552;-122.600;2022-08-25T01:34:19;31.20;1.00
1361;DHT22;674;45.552;-122.600;2022-08-25T01:36:49;31.10;1.00
1361;DHT22;674;45.552;-122.600;2022-08-25T01:39:18;31.10;1.00
1361;DHT22;674;45.552;-122.600;2022-08-25T01:44:21;30.80;1.00
1361;DHT22;674;45.552;-122.600;2022-08-25T01:46:50;30.80;1.00
1361;DHT22;674;45.552;-122.600;2022-08-25T01:49:19;30.70;1.00
1361;DHT22;674;45.552;-122.600;2022-08-25T01:51:52;30.70;1.00
1361;DHT22;674;45.552;-122.600;2022-08-25T01:54:23;30.60;1.00
1361;DHT22;674;45.552;-122.600;2022-08-25T01:56:51;30.50;1.00
1361;DHT22;674;45.552;-122.600;2022-08-25T01:59:21;30.40;1.00
1361;DHT22;674;45.552;-122.600;2022-08-25T02:01:51;30.30;1.00
1361;DHT22;674;45.552;-122.600;2022-08-25T02:04:27;30.20;1.00
1361;DHT22;674;45.552;-122.600;2022-08-25T02:07:01;30.10;1.00
1361;DHT22;674;45.552;-122.600;2022-08-25T02:09:30;30.20;1.00
1361;DHT22;674;45.552;-122.600;2022-08-25T02:11:59;30.00;1.00
1361;DHT22;674;45.552;-122.600;2022-08-25T02:14:28;29.80;1.00
1361;DHT22;674;45.552;-122.600;2022-08-25T02:16:56;29.60;1.00
1361;DHT22;674;45.552;-122.600;2022-08-25T02:19:26;29.50;1.00
1361;DHT22;674;45.552;-122.600;2022-08-25T02:21:59;29.50;1.00
1361;DHT22;674;45.552;-122.600;2022-08-25T02:24:27;29.40;1.00
1361;DHT22;674;45.552;-122.600;2022-08-25T02:26:56;29.30;1.00
1361;DHT22;674;45.552;-122.600;2022-08-25T02:29:25;29.30;1.00
1361;DHT22;674;45.552;-122.600;2022-08-25T02:31:53;29.30;1.00
1361;DHT22;674;45.552;-122.600;2022-08-25T02:34:22;29.20;1.00
1361;DHT22;674;45.552;-122.600;2022-08-25T02:36:50;29.10;1.00
1361;DHT22;674;45.552;-122.600;2022-08-25T02:39:19;28.90;1.00
1361;DHT22;674;45.552;-122.600;2022-08-25T02:41:47;28.90;1.00
1361;DHT22;674;45.552;-122.600;2022-08-25T02:44:16;28.80;1.00
1361;DHT22;674;45.552;-122.600;2022-08-25T02:46:44;28.80;1.00
1361;DHT22;674;45.552;-122.600;2022-08-25T02:49:13;28.70;1.00
1361;DHT22;674;45.552;-122.600;2022-08-25T02:51:41;28.60;1.00
1361;DHT22;674;45.552;-122.600;2022-08-25T02:54:10;28.50;1.00
1361;DHT22;674;45.552;-122.600;2022-08-25T02:56:38;28.40;1.00
1361;DHT22;674;45.552;-122.600;2022-08-25T02:59:10;28.30;1.00
1361;DHT22;674;45.552;-122.600;2022-08-25T03:01:39;28.30;1.00
1361;DHT22;674;45.552;-122.600;2022-08-25T03:04:08;28.20;1.00
1361;DHT22;674;45.552;-122.600;2022-08-25T03:06:37;28.00;1.00
1361;DHT22;674;45.552;-122.600;2022-08-25T03:09:06;28.00;1.00
1361;DHT22;674;45.552;-122.600;2022-08-25T03:11:35;28.00;1.00
1361;DHT22;674;45.552;-122.600;2022-08-25T03:14:06;27.80;1.00
1361;DHT22;674;45.552;-122.600;2022-08-25T03:16:35;27.80;1.00
1361;DHT22;674;45.552;-122.600;2022-08-25T03:19:04;27.80;1.00
1361;DHT22;674;45.552;-122.600;2022-08-25T03:21:33;27.70;1.00
1361;DHT22;674;45.552;-122.600;2022-08-25T03:24:01;27.60;1.00
1361;DHT22;674;45.552;-122.600;2022-08-25T03:26:30;27.60;1.00
1361;DHT22;674;45.552;-122.600;2022-08-25T03:29:17;27.50;1.00
1361;DHT22;674;45.552;-122.600;2022-08-25T03:31:45;27.40;1.00
1361;DHT22;674;45.552;-122.600;2022-08-25T03:34:15;27.40;1.00
1361;DHT22;674;45.552;-122.600;2022-08-25T03:36:48;27.30;1.00
1361;DHT22;674;45.552;-122.600;2022-08-25T03:39:18;27.40;1.00
1361;DHT22;674;45.552;-122.600;2022-08-25T03:41:47;27.30;1.00
1361;DHT22;674;45.552;-122.600;2022-08-25T03:44:17;27.20;1.00
1361;DHT22;674;45.552;-122.600;2022-08-25T03:46:48;27.10;1.00
1361;DHT22;674;45.552;-122.600;2022-08-25T03:49:20;27.10;1.00
1361;DHT22;674;45.552;-122.600;2022-08-25T03:51:52;27.10;1.00
1361;DHT22;674;45.552;-122.600;2022-08-25T03:54:23;27.00;1.00
1361;DHT22;674;45.552;-122.600;2022-08-25T03:56:52;27.00;1.00
1361;DHT22;674;45.552;-122.600;2022-08-25T03:59:21;26.90;1.00
1361;DHT22;674;45.552;-122.600;2022-08-25T04:01:49;26.80;1.00
1361;DHT22;674;45.552;-122.600;2022-08-25T04:04:21;26.80;1.00
1361;DHT22;674;45.552;-122.600;2022-08-25T04:06:50;26.80;1.00
1361;DHT22;674;45.552;-122.600;2022-08-25T04:09:19;26.70;1.00
1361;DHT22;674;45.552;-122.600;2022-08-25T04:11:48;26.70;1.00
1361;DHT22;674;45.552;-122.600;2022-08-25T04:14:20;26.70;1.00
1361;DHT22;674;45.552;-122.600;2022-08-25T04:16:48;26.70;1.00
1361;DHT22;674;45.552;-122.600;2022-08-25T04:19:17;26.60;1.00
1361;DHT22;674;45.552;-122.600;2022-08-25T04:21:47;26.50;1.00
1361;DHT22;674;45.552;-122.600;2022-08-25T04:24:15;26.50;1.00
1361;DHT22;674;45.552;-122.600;2022-08-25T04:26:49;26.50;1.00
1361;DHT22;674;45.552;-122.600;2022-08-25T04:29:20;26.40;1.00
1361;DHT22;674;45.552;-122.600;2022-08-25T04:31:51;26.30;1.00
1361;DHT22;674;45.552;-122.600;2022-08-25T04:34:22;26.30;1.00
1361;DHT22;674;45.552;-122.600;2022-08-25T04:37:02;26.30;1.00
1361;DHT22;674;45.552;-122.600;2022-08-25T04:39:33;26.20;1.00
1361;DHT22;674;45.552;-122.600;2022-08-25T04:42:02;26.20;1.00
1361;DHT22;674;45.552;-122.600;2022-08-25T04:44:31;26.20;1.00
1361;DHT22;674;45.552;-122.600;2022-08-25T04:47:00;26.20;1.00
1361;DHT22;674;45.552;-122.600;2022-08-25T04:49:29;26.10;1.00
1361;DHT22;674;45.552;-122.600;2022-08-25T04:51:58;26.00;1.00
1361;DHT22;674;45.552;-122.600;2022-08-25T04:54:27;26.00;1.00
1361;DHT22;674;45.552;-122.600;2022-08-25T04:57:03;25.90;1.00
1361;DHT22;674;45.552;-122.600;2022-08-25T04:59:32;25.90;1.00
1361;DHT22;674;45.552;-122.600;2022-08-25T05:02:00;25.90;1.00
1361;DHT22;674;45.552;-122.600;2022-08-25T05:04:30;25.90;1.00
1361;DHT22;674;45.552;-122.600;2022-08-25T05:06:59;25.80;1.00
1361;DHT22;674;45.552;-122.600;2022-08-25T05:09:28;25.70;1.00
1361;DHT22;674;45.552;-122.600;2022-08-25T05:12:00;25.70;1.00
1361;DHT22;674;45.552;-122.600;2022-08-25T05:14:30;25.60;1.00
1361;DHT22;674;45.552;-122.600;2022-08-25T05:16:58;25.60;1.00
1361;DHT22;674;45.552;-122.600;2022-08-25T05:19:27;25.50;1.00
1361;DHT22;674;45.552;-122.600;2022-08-25T05:21:55;25.50;1.00
1361;DHT22;674;45.552;-122.600;2022-08-25T05:24:25;25.50;1.00
1361;DHT22;674;45.552;-122.600;2022-08-25T05:26:55;25.40;1.00
1361;DHT22;674;45.552;-122.600;2022-08-25T05:29:23;25.40;1.00
1361;DHT22;674;45.552;-122.600;2022-08-25T05:31:52;25.40;1.00
1361;DHT22;674;45.552;-122.600;2022-08-25T05:34:20;25.30;1.00
1361;DHT22;674;45.552;-122.600;2022-08-25T05:36:49;25.20;1.00
1361;DHT22;674;45.552;-122.600;2022-08-25T05:39:18;25.20;1.00
1361;DHT22;674;45.552;-122.600;2022-08-25T05:41:46;25.10;1.00
1361;DHT22;674;45.552;-122.600;2022-08-25T05:44:15;25.10;1.00
1361;DHT22;674;45.552;-122.600;2022-08-25T05:46:47;25.00;1.00
1361;DHT22;674;45.552;-122.600;2022-08-25T05:49:16;24.90;1.00
1361;DHT22;674;45.552;-122.600;2022-08-25T05:51:45;24.90;1.00
1361;DHT22;674;45.552;-122.600;2022-08-25T05:54:13;24.90;1.00
1361;DHT22;674;45.552;-122.600;2022-08-25T05:56:42;24.80;1.00
1361;DHT22;674;45.552;-122.600;2022-08-25T05:59:12;24.80;1.00
1361;DHT22;674;45.552;-122.600;2022-08-25T06:01:40;24.80;1.00
1361;DHT22;674;45.552;-122.600;2022-08-25T06:04:27;24.80;1.00
1361;DHT22;674;45.552;-122.600;2022-08-25T06:06:55;24.80;1.00
1361;DHT22;674;45.552;-122.600;2022-08-25T06:09:24;24.70;1.00
1361;DHT22;674;45.552;-122.600;2022-08-25T06:11:53;24.60;1.00
1361;DHT22;674;45.552;-122.600;2022-08-25T06:14:22;24.50;1.00
1361;DHT22;674;45.552;-122.600;2022-08-25T06:16:51;24.30;1.00
1361;DHT22;674;45.552;-122.600;2022-08-25T06:19:20;24.30;1.00
1361;DHT22;674;45.552;-122.600;2022-08-25T06:21:53;24.30;1.00
1361;DHT22;674;45.552;-122.600;2022-08-25T06:24:24;24.30;1.00
1361;DHT22;674;45.552;-122.600;2022-08-25T06:26:53;24.30;1.00
1361;DHT22;674;45.552;-122.600;2022-08-25T06:29:22;24.30;1.00
1361;DHT22;674;45.552;-122.600;2022-08-25T06:31:51;24.30;1.00
1361;DHT22;674;45.552;-122.600;2022-08-25T06:34:19;24.30;1.00
1361;DHT22;674;45.552;-122.600;2022-08-25T06:36:50;24.30;1.00
1361;DHT22;674;45.552;-122.600;2022-08-25T06:39:19;24.30;1.00
1361;DHT22;674;45.552;-122.600;2022-08-25T06:41:56;24.20;1.00
1361;DHT22;674;45.552;-122.600;2022-08-25T06:44:25;24.20;1.00
1361;DHT22;674;45.552;-122.600;2022-08-25T06:46:57;24.20;1.00
1361;DHT22;674;45.552;-122.600;2022-08-25T06:49:25;24.10;1.00
1361;DHT22;674;45.552;-122.600;2022-08-25T06:52:02;24.10;1.00
1361;DHT22;674;45.552;-122.600;2022-08-25T06:54:31;24.00;1.00
1361;DHT22;674;45.552;-122.600;2022-08-25T06:56:59;24.00;1.00
1361;DHT22;674;45.552;-122.600;2022-08-25T06:59:28;24.00;1.00
1361;DHT22;674;45.552;-122.600;2022-08-25T07:01:59;24.00;1.00
1361;DHT22;674;45.552;-122.600;2022-08-25T07:04:30;23.90;1.00
1361;DHT22;674;45.552;-122.600;2022-08-25T07:06:59;23.90;1.00
1361;DHT22;674;45.552;-122.600;2022-08-25T07:09:27;23.90;1.00
1361;DHT22;674;45.552;-122.600;2022-08-25T07:11:56;23.80;1.00
1361;DHT22;674;45.552;-122.600;2022-08-25T07:14:25;23.90;1.00
1361;DHT22;674;45.552;-122.600;2022-08-25T07:16:53;23.80;1.00
1361;DHT22;674;45.552;-122.600;2022-08-25T07:19:22;23.70;1.00
1361;DHT22;674;45.552;-122.600;2022-08-25T07:21:52;23.70;1.00
1361;DHT22;674;45.552;-122.600;2022-08-25T07:24:21;23.50;1.00
1361;DHT22;674;45.552;-122.600;2022-08-25T07:26:50;23.40;1.00
1361;DHT22;674;45.552;-122.600;2022-08-25T07:29:25;23.40;1.00
1361;DHT22;674;45.552;-122.600;2022-08-25T07:32:00;23.30;1.00
1361;DHT22;674;45.552;-122.600;2022-08-25T07:34:29;23.30;1.00
1361;DHT22;674;45.552;-122.600;2022-08-25T07:37:40;23.20;1.00
1361;DHT22;674;45.552;-122.600;2022-08-25T07:40:24;23.20;1.00
1361;DHT22;674;45.552;-122.600;2022-08-25T07:42:55;23.20;1.00
1361;DHT22;674;45.552;-122.600;2022-08-25T07:45:28;23.10;1.00
1361;DHT22;674;45.552;-122.600;2022-08-25T07:47:59;23.00;1.00
1361;DHT22;674;45.552;-122.600;2022-08-25T07:50:29;23.00;1.00
1361;DHT22;674;45.552;-122.600;2022-08-25T07:52:58;22.90;1.00
1361;DHT22;674;45.552;-122.600;2022-08-25T07:55:27;22.80;1.00
1361;DHT22;674;45.552;-122.600;2022-08-25T07:57:58;22.80;1.00
1361;DHT22;674;45.552;-122.600;2022-08-25T08:00:28;22.80;1.00
1361;DHT22;674;45.552;-122.600;2022-08-25T08:02:59;22.80;1.00
1361;DHT22;674;45.552;-122.600;2022-08-25T08:05:30;22.70;1.00
1361;DHT22;674;45.552;-122.600;2022-08-25T08:07:59;22.70;1.00
1361;DHT22;674;45.552;-122.600;2022-08-25T08:10:29;22.70;1.00
1361;DHT22;674;45.552;-122.600;2022-08-25T08:13:17;22.60;1.00
1361;DHT22;674;45.552;-122.600;2022-08-25T08:15:47;22.60;1.00
1361;DHT22;674;45.552;-122.600;2022-08-25T08:18:16;22.60;1.00
1361;DHT22;674;45.552;-122.600;2022-08-25T08:20:46;22.60;1.00
1361;DHT22;674;45.552;-122.600;2022-08-25T08:23:15;22.60;1.00
1361;DHT22;674;45.552;-122.600;2022-08-25T08:25:44;22.50;1.00
1361;DHT22;674;45.552;-122.600;2022-08-25T08:28:12;22.50;1.00
1361;DHT22;674;45.552;-122.600;2022-08-25T08:30:41;22.50;1.00
1361;DHT22;674;45.552;-122.600;2022-08-25T08:33:20;22.50;1.00
1361;DHT22;674;45.552;-122.600;2022-08-25T08:36:06;22.40;1.00
1361;DHT22;674;45.552;-122.600;2022-08-25T08:38:36;22.50;1.00
1361;DHT22;674;45.552;-122.600;2022-08-25T08:41:16;22.50;1.00
1361;DHT22;674;45.552;-122.600;2022-08-25T08:50:10;22.30;1.00
1361;DHT22;674;45.552;-122.600;2022-08-25T08:55:51;22.20;1.00
1361;DHT22;674;45.552;-122.600;2022-08-25T08:58:51;22.20;1.00
1361;DHT22;674;45.552;-122.600;2022-08-25T09:01:29;22.10;1.00
1361;DHT22;674;45.552;-122.600;2022-08-25T09:04:08;22.00;1.00
1361;DHT22;674;45.552;-122.600;2022-08-25T09:06:45;22.00;1.00
1361;DHT22;674;45.552;-122.600;2022-08-25T09:09:35;21.90;1.00
1361;DHT22;674;45.552;-122.600;2022-08-25T09:12:27;21.90;1.00
1361;DHT22;674;45.552;-122.600;2022-08-25T09:20:39;21.90;1.00
1361;DHT22;674;45.552;-122.600;2022-08-25T09:28:51;21.80;1.00
1361;DHT22;674;45.552;-122.600;2022-08-25T09:31:31;21.70;1.00
1361;DHT22;674;45.552;-122.600;2022-08-25T09:34:10;21.60;1.00
1361;DHT22;674;45.552;-122.600;2022-08-25T09:36:40;21.60;1.00
1361;DHT22;674;45.552;-122.600;2022-08-25T09:39:08;21.50;1.00
1361;DHT22;674;45.552;-122.600;2022-08-25T09:41:52;21.50;1.00
1361;DHT22;674;45.552;-122.600;2022-08-25T09:44:35;21.50;1.00
1361;DHT22;674;45.552;-122.600;2022-08-25T09:47:20;21.60;1.00
1361;DHT22;674;45.552;-122.600;2022-08-25T09:49:57;21.70;1.00
1361;DHT22;674;45.552;-122.600;2022-08-25T09:52:37;21.60;1.00
1361;DHT22;674;45.552;-122.600;2022-08-25T10:00:30;21.50;1.00
1361;DHT22;674;45.552;-122.600;2022-08-25T10:06:20;21.20;1.40
1361;DHT22;674;45.552;-122.600;2022-08-25T10:11:14;21.20;9.20
1361;DHT22;674;45.552;-122.600;2022-08-25T10:16:41;21.10;11.00
1361;DHT22;674;45.552;-122.600;2022-08-25T10:22:20;21.00;18.60
1361;DHT22;674;45.552;-122.600;2022-08-25T10:24:49;20.90;22.10
1361;DHT22;674;45.552;-122.600;2022-08-25T10:28:07;20.70;29.70
1361;DHT22;674;45.552;-122.600;2022-08-25T10:36:15;20.70;36.30
1361;DHT22;674;45.552;-122.600;2022-08-25T10:38:56;20.60;43.40
1361;DHT22;674;45.552;-122.600;2022-08-25T10:44:14;20.60;40.50
1361;DHT22;674;45.552;-122.600;2022-08-25T11:07:11;20.30;63.70
1361;DHT22;674;45.552;-122.600;2022-08-25T11:09:46;20.20;70.90
1361;DHT22;674;45.552;-122.600;2022-08-25T11:12:53;20.30;64.90
1361;DHT22;674;45.552;-122.600;2022-08-25T11:18:55;20.20;71.70
1361;DHT22;674;45.552;-122.600;2022-08-25T11:30:21;20.00;83.30
1361;DHT22;674;45.552;-122.600;2022-08-25T11:32:52;20.00;82.00
1361;DHT22;674;45.552;-122.600;2022-08-25T11:36:05;20.00;83.60
1361;DHT22;674;45.552;-122.600;2022-08-25T11:38:55;20.10;81.00
1361;DHT22;674;45.552;-122.600;2022-08-25T11:44:50;20.00;86.40
1361;DHT22;674;45.552;-122.600;2022-08-25T11:53:23;19.90;91.90
1361;DHT22;674;45.552;-122.600;2022-08-25T11:56:11;20.00;90.30
1361;DHT22;674;45.552;-122.600;2022-08-25T11:58:43;19.90;90.00
1361;DHT22;674;45.552;-122.600;2022-08-25T12:12:36;19.40;99.90
1361;DHT22;674;45.552;-122.600;2022-08-25T12:16:09;19.60;99.90
1361;DHT22;674;45.552;-122.600;2022-08-25T12:21:13;19.70;98.20
1361;DHT22;674;45.552;-122.600;2022-08-25T12:24:05;19.70;98.30
1361;DHT22;674;45.552;-122.600;2022-08-25T12:29:27;19.50;99.90
1361;DHT22;674;45.552;-122.600;2022-08-25T12:37:58;19.50;99.90
1361;DHT22;674;45.552;-122.600;2022-08-25T12:43:23;19.40;99.90
1361;DHT22;674;45.552;-122.600;2022-08-25T12:54:46;19.40;99.90
1361;DHT22;674;45.552;-122.600;2022-08-25T12:57:42;19.40;99.90
1361;DHT22;674;45.552;-122.600;2022-08-25T13:00:17;19.30;99.90
1361;DHT22;674;45.552;-122.600;2022-08-25T13:08:28;19.00;99.90
1361;DHT22;674;45.552;-122.600;2022-08-25T13:16:37;18.90;99.90
1361;DHT22;674;45.552;-122.600;2022-08-25T13:19:06;18.80;99.90
1361;DHT22;674;45.552;-122.600;2022-08-25T13:21:47;18.70;99.90
1361;DHT22;674;45.552;-122.600;2022-08-25T13:24:25;18.70;99.90
1361;DHT22;674;45.552;-122.600;2022-08-25T13:26:56;18.60;99.90
1361;DHT22;674;45.552;-122.600;2022-08-25T13:29:32;18.60;99.90
1361;DHT22;674;45.552;-122.600;2022-08-25T13:32:10;18.60;99.90
1361;DHT22;674;45.552;-122.600;2022-08-25T13:34:41;18.60;99.90
1361;DHT22;674;45.552;-122.600;2022-08-25T13:37:16;18.70;99.90
1361;DHT22;674;45.552;-122.600;2022-08-25T13:42:58;18.70;99.90
1361;DHT22;674;45.552;-122.600;2022-08-25T13:45:31;18.70;99.90
1361;DHT22;674;45.552;-122.600;2022-08-25T13:48:08;18.70;99.90
1361;DHT22;674;45.552;-122.600;2022-08-25T13:50:52;18.70;99.90
1361;DHT22;674;45.552;-122.600;2022-08-25T13:53:35;18.80;99.90
1361;DHT22;674;45.552;-122.600;2022-08-25T13:56:03;19.00;99.90
1361;DHT22;674;45.552;-122.600;2022-08-25T13:58:34;19.00;99.90
1361;DHT22;674;45.552;-122.600;2022-08-25T14:01:21;19.20;99.90
1361;DHT22;674;45.552;-122.600;2022-08-25T14:10:07;19.50;99.90
1361;DHT22;674;45.552;-122.600;2022-08-25T14:12:44;19.60;99.90
1361;DHT22;674;45.552;-122.600;2022-08-25T14:18:03;19.80;99.90
1361;DHT22;674;45.552;-122.600;2022-08-25T14:20:35;19.90;99.90
1361;DHT22;674;45.552;-122.600;2022-08-25T14:23:09;20.00;99.90
1361;DHT22;674;45.552;-122.600;2022-08-25T14:25:45;20.10;99.90
1361;DHT22;674;45.552;-122.600;2022-08-25T14:28:18;20.20;99.90
1361;DHT22;674;45.552;-122.600;2022-08-25T14:30:53;20.20;99.90
1361;DHT22;674;45.552;-122.600;2022-08-25T14:33:29;20.20;99.90
1361;DHT22;674;45.552;-122.600;2022-08-25T14:36:00;20.30;99.90
1361;DHT22;674;45.552;-122.600;2022-08-25T14:38:30;20.30;99.80
1361;DHT22;674;45.552;-122.600;2022-08-25T14:40:58;20.50;97.20
1361;DHT22;674;45.552;-122.600;2022-08-25T14:43:29;20.50;97.00
1361;DHT22;674;45.552;-122.600;2022-08-25T14:45:59;20.50;96.10
1361;DHT22;674;45.552;-122.600;2022-08-25T14:48:43;20.60;93.30
1361;DHT22;674;45.552;-122.600;2022-08-25T14:51:15;20.80;92.10
1361;DHT22;674;45.552;-122.600;2022-08-25T14:53:43;20.90;88.90
1361;DHT22;674;45.552;-122.600;2022-08-25T14:56:12;21.00;78.10
1361;DHT22;674;45.552;-122.600;2022-08-25T14:58:41;21.00;82.80
1361;DHT22;674;45.552;-122.600;2022-08-25T15:01:19;21.20;77.10
1361;DHT22;674;45.552;-122.600;2022-08-25T15:04:14;21.30;66.40
1361;DHT22;674;45.552;-122.600;2022-08-25T15:06:46;21.60;49.00
1361;DHT22;674;45.552;-122.600;2022-08-25T15:09:17;21.70;33.50
1361;DHT22;674;45.552;-122.600;2022-08-25T15:11:51;21.60;25.40
1361;DHT22;674;45.552;-122.600;2022-08-25T15:14:22;21.60;21.00
1361;DHT22;674;45.552;-122.600;2022-08-25T15:16:59;21.60;26.40
1361;DHT22;674;45.552;-122.600;2022-08-25T15:19:29;21.70;11.80
1361;DHT22;674;45.552;-122.600;2022-08-25T15:21:57;21.70;14.60
1361;DHT22;674;45.552;-122.600;2022-08-25T15:24:27;21.60;15.70
1361;DHT22;674;45.552;-122.600;2022-08-25T15:26:59;21.60;21.80
1361;DHT22;674;45.552;-122.600;2022-08-25T15:29:29;22.00;3.50
1361;DHT22;674;45.552;-122.600;2022-08-25T15:31:59;22.10;1.20
1361;DHT22;674;45.552;-122.600;2022-08-25T15:34:28;22.40;1.00
1361;DHT22;674;45.552;-122.600;2022-08-25T15:36:58;22.50;1.00
1361;DHT22;674;45.552;-122.600;2022-08-25T15:39:28;22.50;1.00
1361;DHT22;674;45.552;-122.600;2022-08-25T15:41:57;22.60;1.00
1361;DHT22;674;45.552;-122.600;2022-08-25T15:44:25;22.90;1.00
1361;DHT22;674;45.552;-122.600;2022-08-25T15:46:56;23.40;1.00
1361;DHT22;674;45.552;-122.600;2022-08-25T15:49:27;23.60;1.00
1361;DHT22;674;45.552;-122.600;2022-08-25T15:51:58;24.10;1.00
1361;DHT22;674;45.552;-122.600;2022-08-25T15:54:28;24.50;1.00
1361;DHT22;674;45.552;-122.600;2022-08-25T15:56:57;25.00;1.00
1361;DHT22;674;45.552;-122.600;2022-08-25T15:59:27;26.00;1.00
1361;DHT22;674;45.552;-122.600;2022-08-25T16:01:55;27.20;1.00
1361;DHT22;674;45.552;-122.600;2022-08-25T16:04:26;28.20;1.00
1361;DHT22;674;45.552;-122.600;2022-08-25T16:06:55;28.80;1.00
1361;DHT22;674;45.552;-122.600;2022-08-25T16:09:25;29.50;1.00
1361;DHT22;674;45.552;-122.600;2022-08-25T16:11:56;29.50;1.00
1361;DHT22;674;45.552;-122.600;2022-08-25T16:14:31;30.90;1.00
1361;DHT22;674;45.552;-122.600;2022-08-25T16:17:01;31.40;1.00
1361;DHT22;674;45.552;-122.600;2022-08-25T16:19:29;31.10;1.00
1361;DHT22;674;45.552;-122.600;2022-08-25T16:21:58;31.80;1.00
1361;DHT22;674;45.552;-122.600;2022-08-25T16:24:28;32.50;1.00
1361;DHT22;674;45.552;-122.600;2022-08-25T16:26:57;31.60;1.00
1361;DHT22;674;45.552;-122.600;2022-08-25T16:29:40;31.60;1.00
1361;DHT22;674;45.552;-122.600;2022-08-25T16:32:11;31.30;1.00
1361;DHT22;674;45.552;-122.600;2022-08-25T16:34:40;30.20;1.00
1361;DHT22;674;45.552;-122.600;2022-08-25T16:37:10;28.90;1.00
1361;DHT22;674;45.552;-122.600;2022-08-25T16:39:39;29.00;1.00
1361;DHT22;674;45.552;-122.600;2022-08-25T16:42:11;29.00;1.00
1361;DHT22;674;45.552;-122.600;2022-08-25T16:44:39;29.50;1.00
1361;DHT22;674;45.552;-122.600;2022-08-25T16:47:09;29.50;1.00
1361;DHT22;674;45.552;-122.600;2022-08-25T16:49:40;29.00;1.00
1361;DHT22;674;45.552;-122.600;2022-08-25T16:52:09;28.30;1.00
1361;DHT22;674;45.552;-122.600;2022-08-25T16:54:57;28.40;1.00
1361;DHT22;674;45.552;-122.600;2022-08-25T16:57:50;28.70;1.00
1361;DHT22;674;45.552;-122.600;2022-08-25T17:00:24;27.80;1.00
1361;DHT22;674;45.552;-122.600;2022-08-25T17:02:57;27.20;1.00
1361;DHT22;674;45.552;-122.600;2022-08-25T17:05:28;27.50;1.00
1361;DHT22;674;45.552;-122.600;2022-08-25T17:07:59;28.20;1.00
1361;DHT22;674;45.552;-122.600;2022-08-25T17:10:47;27.50;1.00
1361;DHT22;674;45.552;-122.600;2022-08-25T17:13:16;27.10;1.00
1361;DHT22;674;45.552;-122.600;2022-08-25T17:15:46;27.30;1.00
1361;DHT22;674;45.552;-122.600;2022-08-25T17:18:18;27.10;1.00
1361;DHT22;674;45.552;-122.600;2022-08-25T17:20:47;26.80;1.00
1361;DHT22;674;45.552;-122.600;2022-08-25T17:23:17;27.10;1.00
1361;DHT22;674;45.552;-122.600;2022-08-25T17:25:49;26.50;1.00
1361;DHT22;674;45.552;-122.600;2022-08-25T17:28:19;26.50;1.00
1361;DHT22;674;45.552;-122.600;2022-08-25T17:30:48;26.60;1.00
1361;DHT22;674;45.552;-122.600;2022-08-25T17:33:17;27.10;1.00
1361;DHT22;674;45.552;-122.600;2022-08-25T17:35:52;27.30;1.00
1361;DHT22;674;45.552;-122.600;2022-08-25T17:38:22;27.20;1.00
1361;DHT22;674;45.552;-122.600;2022-08-25T17:40:57;27.20;1.00
1361;DHT22;674;45.552;-122.600;2022-08-25T17:43:27;27.00;1.00
1361;DHT22;674;45.552;-122.600;2022-08-25T17:45:56;27.20;1.00
1361;DHT22;674;45.552;-122.600;2022-08-25T17:48:26;27.40;1.00
1361;DHT22;674;45.552;-122.600;2022-08-25T17:51:00;26.80;1.00
1361;DHT22;674;45.552;-122.600;2022-08-25T17:53:28;26.70;1.00
1361;DHT22;674;45.552;-122.600;2022-08-25T17:55:59;26.50;1.00
1361;DHT22;674;45.552;-122.600;2022-08-25T17:58:28;26.30;1.00
1361;DHT22;674;45.552;-122.600;2022-08-25T18:00:58;26.30;1.00
1361;DHT22;674;45.552;-122.600;2022-08-25T18:03:27;25.70;1.00
1361;DHT22;674;45.552;-122.600;2022-08-25T18:05:56;25.60;1.00
1361;DHT22;674;45.552;-122.600;2022-08-25T18:08:26;25.40;1.00
1361;DHT22;674;45.552;-122.600;2022-08-25T18:11:02;25.60;1.00
1361;DHT22;674;45.552;-122.600;2022-08-25T18:13:34;25.80;1.00
1361;DHT22;674;45.552;-122.600;2022-08-25T18:16:04;25.80;1.00
1361;DHT22;674;45.552;-122.600;2022-08-25T18:18:35;25.50;1.00
1361;DHT22;674;45.552;-122.600;2022-08-25T18:21:04;25.70;1.00
1361;DHT22;674;45.552;-122.600;2022-08-25T18:23:32;25.70;1.00
1361;DHT22;674;45.552;-122.600;2022-08-25T18:26:01;25.70;1.00
1361;DHT22;674;45.552;-122.600;2022-08-25T18:28:32;25.80;1.00
1361;DHT22;674;45.552;-122.600;2022-08-25T18:31:01;25.80;1.00
1361;DHT22;674;45.552;-122.600;2022-08-25T18:33:30;25.70;1.00
1361;DHT22;674;45.552;-122.600;2022-08-25T18:35:58;25.70;1.00
1361;DHT22;674;45.552;-122.600;2022-08-25T18:38:27;25.90;1.00
1361;DHT22;674;45.552;-122.600;2022-08-25T18:41:13;26.10;1.00
1361;DHT22;674;45.552;-122.600;2022-08-25T18:43:42;26.10;1.00